sensor_id;sensor_type;location;lat;lon;timestamp;temperature;humidity
66722;SHT31;53633;49.932;10.884;2024-03-02T00:01:23;6.31;87.95
66722;SHT31;53633;49.932;10.884;2024-03-02T00:03:50;6.30;88.05
66722;SHT31;53633;49.932;10.884;2024-03-02T00:06:20;6.33;87.93
66722;SHT31;53633;49.932;10.884;2024-03-02T00:08:47;6.33;87.85
66722;SHT31;53633;49.932;10.884;2024-03-02T00:11:14;6.31;87.83
66722;SHT31;53633;49.932;10.884;2024-03-02T00:13:41;6.28;87.70
66722;SHT31;53633;49.932;10.884;2024-03-02T00:16:09;6.24;87.82
66722;SHT31;53633;49.932;10.884;2024-03-02T00:18:41;6.17;87.97
66722;SHT31;53633;49.932;10.884;2024-03-02T00:21:08;6.23;88.01
66722;SHT31;53633;49.932;10.884;2024-03-02T00:23:37;6.30;87.77
66722;SHT31;53633;49.932;10.884;2024-03-02T00:26:05;6.28;87.57
66722;SHT31;53633;49.932;10.884;2024-03-02T00:28:34;6.21;87.60
66722;SHT31;53633;49.932;10.884;2024-03-02T00:31:03;6.17;87.66
66722;SHT31;53633;49.932;10.884;2024-03-02T00:33:32;6.16;87.72
66722;SHT31;53633;49.932;10.884;2024-03-02T00:35:59;6.16;87.81
66722;SHT31;53633;49.932;10.884;2024-03-02T00:38:29;6.16;87.85
66722;SHT31;53633;49.932;10.884;2024-03-02T00:41:04;6.17;87.88
66722;SHT31;53633;49.932;10.884;2024-03-02T00:43:44;6.13;87.92
66722;SHT31;53633;49.932;10.884;2024-03-02T00:46:17;6.17;88.05
66722;SHT31;53633;49.932;10.884;2024-03-02T00:48:50;6.16;87.89
66722;SHT31;53633;49.932;10.884;2024-03-02T00:51:18;6.13;87.99
66722;SHT31;53633;49.932;10.884;2024-03-02T00:53:45;6.11;88.13
66722;SHT31;53633;49.932;10.884;2024-03-02T00:56:13;6.09;88.21
66722;SHT31;53633;49.932;10.884;2024-03-02T00:58:41;6.11;88.33
66722;SHT31;53633;49.932;10.884;2024-03-02T01:01:08;6.16;88.21
66722;SHT31;53633;49.932;10.884;2024-03-02T01:03:36;6.18;88.15
66722;SHT31;53633;49.932;10.884;2024-03-02T01:06:04;6.27;88.07
66722;SHT31;53633;49.932;10.884;2024-03-02T01:08:31;6.28;87.98
66722;SHT31;53633;49.932;10.884;2024-03-02T01:10:58;6.33;87.90
66722;SHT31;53633;49.932;10.884;2024-03-02T01:13:27;6.34;87.73
66722;SHT31;53633;49.932;10.884;2024-03-02T01:15:54;6.37;87.71
66722;SHT31;53633;49.932;10.884;2024-03-02T01:18:21;6.37;87.63
66722;SHT31;53633;49.932;10.884;2024-03-02T01:20:48;6.31;87.64
66722;SHT31;53633;49.932;10.884;2024-03-02T01:23:15;6.31;87.53
66722;SHT31;53633;49.932;10.884;2024-03-02T01:25:42;6.25;87.61
66722;SHT31;53633;49.932;10.884;2024-03-02T01:28:10;6.24;87.60
66722;SHT31;53633;49.932;10.884;2024-03-02T01:30:38;6.20;87.60
66722;SHT31;53633;49.932;10.884;2024-03-02T01:33:05;6.16;87.62
66722;SHT31;53633;49.932;10.884;2024-03-02T01:35:32;6.11;87.75
66722;SHT31;53633;49.932;10.884;2024-03-02T01:37:59;6.07;87.94
66722;SHT31;53633;49.932;10.884;2024-03-02T01:40:26;6.07;88.07
66722;SHT31;53633;49.932;10.884;2024-03-02T01:42:54;6.00;87.99
66722;SHT31;53633;49.932;10.884;2024-03-02T01:45:21;6.02;88.10
66722;SHT31;53633;49.932;10.884;2024-03-02T01:47:50;5.99;88.26
66722;SHT31;53633;49.932;10.884;2024-03-02T01:50:25;6.00;88.22
66722;SHT31;53633;49.932;10.884;2024-03-02T01:52:54;6.00;88.41
66722;SHT31;53633;49.932;10.884;2024-03-02T01:55:21;6.06;88.36
66722;SHT31;53633;49.932;10.884;2024-03-02T01:57:48;6.11;88.26
66722;SHT31;53633;49.932;10.884;2024-03-02T02:00:18;6.10;88.17
66722;SHT31;53633;49.932;10.884;2024-03-02T02:02:45;6.13;88.06
66722;SHT31;53633;49.932;10.884;2024-03-02T02:05:14;6.18;88.08
66722;SHT31;53633;49.932;10.884;2024-03-02T02:07:41;6.18;88.04
66722;SHT31;53633;49.932;10.884;2024-03-02T02:10:09;6.18;88.18
66722;SHT31;53633;49.932;10.884;2024-03-02T02:12:37;6.17;88.25
66722;SHT31;53633;49.932;10.884;2024-03-02T02:15:04;6.16;88.32
66722;SHT31;53633;49.932;10.884;2024-03-02T02:17:47;6.23;88.30
66722;SHT31;53633;49.932;10.884;2024-03-02T02:20:18;6.20;88.27
66722;SHT31;53633;49.932;10.884;2024-03-02T02:22:59;6.25;88.32
66722;SHT31;53633;49.932;10.884;2024-03-02T02:25:26;6.25;88.30
66722;SHT31;53633;49.932;10.884;2024-03-02T02:27:54;6.27;88.42
66722;SHT31;53633;49.932;10.884;2024-03-02T02:30:23;6.33;88.45
66722;SHT31;53633;49.932;10.884;2024-03-02T02:32:50;6.35;88.33
66722;SHT31;53633;49.932;10.884;2024-03-02T02:35:17;6.41;88.43
66722;SHT31;53633;49.932;10.884;2024-03-02T02:37:45;6.42;88.76
66722;SHT31;53633;49.932;10.884;2024-03-02T02:40:15;6.49;88.76
66722;SHT31;53633;49.932;10.884;2024-03-02T02:42:41;6.51;88.92
66722;SHT31;53633;49.932;10.884;2024-03-02T02:45:09;6.55;88.96
66722;SHT31;53633;49.932;10.884;2024-03-02T02:47:37;6.59;88.81
66722;SHT31;53633;49.932;10.884;2024-03-02T02:50:07;6.61;88.66
66722;SHT31;53633;49.932;10.884;2024-03-02T02:52:35;6.61;88.53
66722;SHT31;53633;49.932;10.884;2024-03-02T02:55:09;6.59;88.64
66722;SHT31;53633;49.932;10.884;2024-03-02T02:57:39;6.61;88.51
66722;SHT31;53633;49.932;10.884;2024-03-02T03:00:08;6.62;88.55
66722;SHT31;53633;49.932;10.884;2024-03-02T03:02:36;6.62;88.42
66722;SHT31;53633;49.932;10.884;2024-03-02T03:05:04;6.62;88.47
66722;SHT31;53633;49.932;10.884;2024-03-02T03:07:31;6.67;88.59
66722;SHT31;53633;49.932;10.884;2024-03-02T03:09:57;6.68;88.55
66722;SHT31;53633;49.932;10.884;2024-03-02T03:12:24;6.71;88.51
66722;SHT31;53633;49.932;10.884;2024-03-02T03:14:54;6.73;88.35
66722;SHT31;53633;49.932;10.884;2024-03-02T03:17:21;6.76;88.37
66722;SHT31;53633;49.932;10.884;2024-03-02T03:19:48;6.72;89.07
66722;SHT31;53633;49.932;10.884;2024-03-02T03:22:16;6.71;89.54
66722;SHT31;53633;49.932;10.884;2024-03-02T03:24:43;6.75;89.63
66722;SHT31;53633;49.932;10.884;2024-03-02T03:27:10;6.72;89.84
66722;SHT31;53633;49.932;10.884;2024-03-02T03:29:38;6.75;90.08
66722;SHT31;53633;49.932;10.884;2024-03-02T03:32:08;6.72;90.91
66722;SHT31;53633;49.932;10.884;2024-03-02T03:34:36;6.78;90.71
66722;SHT31;53633;49.932;10.884;2024-03-02T03:37:03;6.82;90.82
66722;SHT31;53633;49.932;10.884;2024-03-02T03:39:34;6.85;91.13
66722;SHT31;53633;49.932;10.884;2024-03-02T03:42:01;6.86;90.98
66722;SHT31;53633;49.932;10.884;2024-03-02T03:44:30;6.90;90.77
66722;SHT31;53633;49.932;10.884;2024-03-02T03:46:57;6.96;90.60
66722;SHT31;53633;49.932;10.884;2024-03-02T03:49:26;7.00;90.34
66722;SHT31;53633;49.932;10.884;2024-03-02T03:51:53;7.01;90.09
66722;SHT31;53633;49.932;10.884;2024-03-02T03:54:22;6.93;90.04
66722;SHT31;53633;49.932;10.884;2024-03-02T03:56:49;6.95;89.93
66722;SHT31;53633;49.932;10.884;2024-03-02T03:59:17;6.96;89.85
66722;SHT31;53633;49.932;10.884;2024-03-02T04:01:43;6.97;89.99
66722;SHT31;53633;49.932;10.884;2024-03-02T04:04:10;6.96;89.95
66722;SHT31;53633;49.932;10.884;2024-03-02T04:06:43;6.93;89.78
66722;SHT31;53633;49.932;10.884;2024-03-02T04:09:10;6.93;89.93
66722;SHT31;53633;49.932;10.884;2024-03-02T04:11:40;6.89;89.97
66722;SHT31;53633;49.932;10.884;2024-03-02T04:14:07;6.90;89.82
66722;SHT31;53633;49.932;10.884;2024-03-02T04:16:34;6.85;89.70
66722;SHT31;53633;49.932;10.884;2024-03-02T04:19:03;6.75;89.48
66722;SHT31;53633;49.932;10.884;2024-03-02T04:21:40;6.69;89.61
66722;SHT31;53633;49.932;10.884;2024-03-02T04:24:07;6.67;89.50
66722;SHT31;53633;49.932;10.884;2024-03-02T04:26:34;6.65;89.57
66722;SHT31;53633;49.932;10.884;2024-03-02T04:29:01;6.59;89.51
66722;SHT31;53633;49.932;10.884;2024-03-02T04:31:28;6.55;89.65
66722;SHT31;53633;49.932;10.884;2024-03-02T04:33:55;6.54;89.83
66722;SHT31;53633;49.932;10.884;2024-03-02T04:36:22;6.55;90.24
66722;SHT31;53633;49.932;10.884;2024-03-02T04:38:51;6.51;90.44
66722;SHT31;53633;49.932;10.884;2024-03-02T04:41:20;6.54;91.59
66722;SHT31;53633;49.932;10.884;2024-03-02T04:43:47;6.51;91.40
66722;SHT31;53633;49.932;10.884;2024-03-02T04:46:14;6.49;91.26
66722;SHT31;53633;49.932;10.884;2024-03-02T04:48:41;6.54;91.32
66722;SHT31;53633;49.932;10.884;2024-03-02T04:51:08;6.54;91.61
66722;SHT31;53633;49.932;10.884;2024-03-02T04:53:34;6.55;91.60
66722;SHT31;53633;49.932;10.884;2024-03-02T04:56:04;6.52;91.84
66722;SHT31;53633;49.932;10.884;2024-03-02T04:58:31;6.55;91.71
66722;SHT31;53633;49.932;10.884;2024-03-02T05:00:58;6.56;91.63
66722;SHT31;53633;49.932;10.884;2024-03-02T05:03:25;6.56;91.48
66722;SHT31;53633;49.932;10.884;2024-03-02T05:05:52;6.56;91.28
66722;SHT31;53633;49.932;10.884;2024-03-02T05:08:19;6.56;91.20
66722;SHT31;53633;49.932;10.884;2024-03-02T05:10:45;6.56;91.13
66722;SHT31;53633;49.932;10.884;2024-03-02T05:15:44;6.51;90.92
66722;SHT31;53633;49.932;10.884;2024-03-02T05:18:11;6.51;90.87
66722;SHT31;53633;49.932;10.884;2024-03-02T05:20:38;6.48;90.80
66722;SHT31;53633;49.932;10.884;2024-03-02T05:23:05;6.44;90.84
66722;SHT31;53633;49.932;10.884;2024-03-02T05:25:32;6.49;90.85
66722;SHT31;53633;49.932;10.884;2024-03-02T05:28:01;6.44;90.64
66722;SHT31;53633;49.932;10.884;2024-03-02T05:30:28;6.45;90.58
66722;SHT31;53633;49.932;10.884;2024-03-02T05:32:57;6.45;90.36
66722;SHT31;53633;49.932;10.884;2024-03-02T05:35:31;6.35;90.28
66722;SHT31;53633;49.932;10.884;2024-03-02T05:37:57;6.28;90.32
66722;SHT31;53633;49.932;10.884;2024-03-02T05:40:24;6.25;90.22
66722;SHT31;53633;49.932;10.884;2024-03-02T05:42:51;6.23;90.14
66722;SHT31;53633;49.932;10.884;2024-03-02T05:45:19;6.17;89.99
66722;SHT31;53633;49.932;10.884;2024-03-02T05:47:46;6.14;89.95
66722;SHT31;53633;49.932;10.884;2024-03-02T05:50:14;6.14;89.98
66722;SHT31;53633;49.932;10.884;2024-03-02T05:52:41;6.06;89.88
66722;SHT31;53633;49.932;10.884;2024-03-02T05:55:08;6.02;89.92
66722;SHT31;53633;49.932;10.884;2024-03-02T05:57:35;6.00;90.08
66722;SHT31;53633;49.932;10.884;2024-03-02T06:00:06;6.00;90.06
66722;SHT31;53633;49.932;10.884;2024-03-02T06:02:34;5.96;89.98
66722;SHT31;53633;49.932;10.884;2024-03-02T06:05:05;5.97;89.92
66722;SHT31;53633;49.932;10.884;2024-03-02T06:07:35;5.99;89.80
66722;SHT31;53633;49.932;10.884;2024-03-02T06:10:02;6.02;89.72
66722;SHT31;53633;49.932;10.884;2024-03-02T06:12:31;6.00;89.79
66722;SHT31;53633;49.932;10.884;2024-03-02T06:14:58;5.96;89.90
66722;SHT31;53633;49.932;10.884;2024-03-02T06:17:31;5.96;89.95
66722;SHT31;53633;49.932;10.884;2024-03-02T06:19:59;5.93;89.95
66722;SHT31;53633;49.932;10.884;2024-03-02T06:22:27;5.96;90.07
66722;SHT31;53633;49.932;10.884;2024-03-02T06:24:55;5.96;89.96
66722;SHT31;53633;49.932;10.884;2024-03-02T06:27:24;6.02;89.86
66722;SHT31;53633;49.932;10.884;2024-03-02T06:29:51;6.04;89.72
66722;SHT31;53633;49.932;10.884;2024-03-02T06:32:17;6.13;89.70
66722;SHT31;53633;49.932;10.884;2024-03-02T06:34:45;6.16;89.60
66722;SHT31;53633;49.932;10.884;2024-03-02T06:37:12;6.20;89.56
66722;SHT31;53633;49.932;10.884;2024-03-02T06:39:38;6.24;89.48
66722;SHT31;53633;49.932;10.884;2024-03-02T06:42:07;6.30;89.42
66722;SHT31;53633;49.932;10.884;2024-03-02T06:44:36;6.40;89.29
66722;SHT31;53633;49.932;10.884;2024-03-02T06:47:03;6.46;89.19
66722;SHT31;53633;49.932;10.884;2024-03-02T06:49:30;6.56;89.17
66722;SHT31;53633;49.932;10.884;2024-03-02T06:51:57;6.58;88.98
66722;SHT31;53633;49.932;10.884;2024-03-02T06:54:25;6.67;88.95
66722;SHT31;53633;49.932;10.884;2024-03-02T06:56:53;6.69;88.96
66722;SHT31;53633;49.932;10.884;2024-03-02T06:59:21;6.76;88.92
66722;SHT31;53633;49.932;10.884;2024-03-02T07:01:48;6.90;88.82
66722;SHT31;53633;49.932;10.884;2024-03-02T07:04:17;7.00;88.63
66722;SHT31;53633;49.932;10.884;2024-03-02T07:06:44;7.11;88.65
66722;SHT31;53633;49.932;10.884;2024-03-02T07:09:11;7.23;88.62
66722;SHT31;53633;49.932;10.884;2024-03-02T07:11:38;7.32;88.31
66722;SHT31;53633;49.932;10.884;2024-03-02T07:14:05;7.40;88.47
66722;SHT31;53633;49.932;10.884;2024-03-02T07:16:33;7.54;88.56
66722;SHT31;53633;49.932;10.884;2024-03-02T07:19:00;7.72;88.38
66722;SHT31;53633;49.932;10.884;2024-03-02T07:21:29;7.85;87.80
66722;SHT31;53633;49.932;10.884;2024-03-02T07:23:58;8.02;87.84
66722;SHT31;53633;49.932;10.884;2024-03-02T07:26:38;8.30;87.25
66722;SHT31;53633;49.932;10.884;2024-03-02T07:29:09;8.64;86.67
66722;SHT31;53633;49.932;10.884;2024-03-02T07:31:41;8.69;86.62
66722;SHT31;53633;49.932;10.884;2024-03-02T07:34:08;8.73;86.69
66722;SHT31;53633;49.932;10.884;2024-03-02T07:36:37;8.80;86.14
66722;SHT31;53633;49.932;10.884;2024-03-02T07:39:04;8.88;86.15
66722;SHT31;53633;49.932;10.884;2024-03-02T07:41:31;8.96;85.88
66722;SHT31;53633;49.932;10.884;2024-03-02T07:44:00;9.02;85.67
66722;SHT31;53633;49.932;10.884;2024-03-02T07:46:26;9.12;85.44
66722;SHT31;53633;49.932;10.884;2024-03-02T07:48:56;9.16;85.14
66722;SHT31;53633;49.932;10.884;2024-03-02T07:51:26;9.28;84.81
66722;SHT31;53633;49.932;10.884;2024-03-02T07:53:55;9.38;84.56
66722;SHT31;53633;49.932;10.884;2024-03-02T07:56:22;9.50;84.09
66722;SHT31;53633;49.932;10.884;2024-03-02T07:58:49;9.67;83.79
66722;SHT31;53633;49.932;10.884;2024-03-02T08:01:18;10.01;82.85
66722;SHT31;53633;49.932;10.884;2024-03-02T08:03:46;10.40;81.52
66722;SHT31;53633;49.932;10.884;2024-03-02T08:06:14;11.36;79.45
66722;SHT31;53633;49.932;10.884;2024-03-02T08:08:42;12.15;76.99
66722;SHT31;53633;49.932;10.884;2024-03-02T08:11:09;12.72;75.15
66722;SHT31;53633;49.932;10.884;2024-03-02T08:13:36;13.52;73.04
66722;SHT31;53633;49.932;10.884;2024-03-02T08:16:03;13.90;70.62
66722;SHT31;53633;49.932;10.884;2024-03-02T08:18:30;13.69;71.01
66722;SHT31;53633;49.932;10.884;2024-03-02T08:20:57;13.26;71.12
66722;SHT31;53633;49.932;10.884;2024-03-02T08:23:26;13.39;71.28
66722;SHT31;53633;49.932;10.884;2024-03-02T08:25:53;13.28;72.02
66722;SHT31;53633;49.932;10.884;2024-03-02T08:28:23;13.21;72.38
66722;SHT31;53633;49.932;10.884;2024-03-02T08:30:50;12.97;72.34
66722;SHT31;53633;49.932;10.884;2024-03-02T08:33:17;13.07;72.23
66722;SHT31;53633;49.932;10.884;2024-03-02T08:35:44;13.02;72.36
66722;SHT31;53633;49.932;10.884;2024-03-02T08:38:12;13.04;72.53
66722;SHT31;53633;49.932;10.884;2024-03-02T08:40:44;13.08;72.43
66722;SHT31;53633;49.932;10.884;2024-03-02T08:43:12;13.01;72.33
66722;SHT31;53633;49.932;10.884;2024-03-02T08:45:39;13.05;72.00
66722;SHT31;53633;49.932;10.884;2024-03-02T08:48:07;12.80;72.91
66722;SHT31;53633;49.932;10.884;2024-03-02T08:50:34;12.88;72.70
66722;SHT31;53633;49.932;10.884;2024-03-02T08:53:01;12.74;72.75
66722;SHT31;53633;49.932;10.884;2024-03-02T08:55:27;12.87;72.48
66722;SHT31;53633;49.932;10.884;2024-03-02T08:57:56;12.97;71.77
66722;SHT31;53633;49.932;10.884;2024-03-02T09:00:23;12.85;71.61
66722;SHT31;53633;49.932;10.884;2024-03-02T09:02:50;12.94;71.90
66722;SHT31;53633;49.932;10.884;2024-03-02T09:05:17;12.91;71.73
66722;SHT31;53633;49.932;10.884;2024-03-02T09:07:43;12.95;71.92
66722;SHT31;53633;49.932;10.884;2024-03-02T09:10:10;13.11;71.72
66722;SHT31;53633;49.932;10.884;2024-03-02T09:12:37;13.10;72.05
66722;SHT31;53633;49.932;10.884;2024-03-02T09:15:06;13.15;71.18
66722;SHT31;53633;49.932;10.884;2024-03-02T09:17:33;12.90;71.56
66722;SHT31;53633;49.932;10.884;2024-03-02T09:20:00;12.74;72.00
66722;SHT31;53633;49.932;10.884;2024-03-02T09:22:27;12.60;72.82
66722;SHT31;53633;49.932;10.884;2024-03-02T09:24:53;12.50;72.68
66722;SHT31;53633;49.932;10.884;2024-03-02T09:27:20;12.40;73.12
66722;SHT31;53633;49.932;10.884;2024-03-02T09:29:47;12.36;73.26
66722;SHT31;53633;49.932;10.884;2024-03-02T09:32:15;12.36;73.27
66722;SHT31;53633;49.932;10.884;2024-03-02T09:34:42;12.29;73.33
66722;SHT31;53633;49.932;10.884;2024-03-02T09:37:09;12.18;74.05
66722;SHT31;53633;49.932;10.884;2024-03-02T09:39:35;12.15;74.26
66722;SHT31;53633;49.932;10.884;2024-03-02T09:42:04;12.14;74.08
66722;SHT31;53633;49.932;10.884;2024-03-02T09:44:30;12.12;74.09
66722;SHT31;53633;49.932;10.884;2024-03-02T09:46:57;11.85;74.67
66722;SHT31;53633;49.932;10.884;2024-03-02T09:49:25;11.74;74.81
66722;SHT31;53633;49.932;10.884;2024-03-02T09:51:52;11.66;74.92
66722;SHT31;53633;49.932;10.884;2024-03-02T09:54:19;11.63;75.60
66722;SHT31;53633;49.932;10.884;2024-03-02T09:56:49;11.64;75.35
66722;SHT31;53633;49.932;10.884;2024-03-02T09:59:16;11.61;75.08
66722;SHT31;53633;49.932;10.884;2024-03-02T10:01:55;11.61;75.46
66722;SHT31;53633;49.932;10.884;2024-03-02T10:04:23;11.69;75.20
66722;SHT31;53633;49.932;10.884;2024-03-02T10:06:51;11.57;75.26
66722;SHT31;53633;49.932;10.884;2024-03-02T10:09:27;11.63;75.25
66722;SHT31;53633;49.932;10.884;2024-03-02T10:11:54;11.70;74.81
66722;SHT31;53633;49.932;10.884;2024-03-02T10:14:30;11.84;74.64
66722;SHT31;53633;49.932;10.884;2024-03-02T10:17:01;11.87;74.67
66722;SHT31;53633;49.932;10.884;2024-03-02T10:19:29;12.01;74.39
66722;SHT31;53633;49.932;10.884;2024-03-02T10:21:57;11.85;74.53
66722;SHT31;53633;49.932;10.884;2024-03-02T10:24:25;11.98;74.42
66722;SHT31;53633;49.932;10.884;2024-03-02T10:26:52;12.14;74.03
66722;SHT31;53633;49.932;10.884;2024-03-02T10:29:19;12.24;73.58
66722;SHT31;53633;49.932;10.884;2024-03-02T10:31:46;12.25;73.35
66722;SHT31;53633;49.932;10.884;2024-03-02T10:34:13;12.26;73.72
66722;SHT31;53633;49.932;10.884;2024-03-02T10:36:41;12.36;73.15
66722;SHT31;53633;49.932;10.884;2024-03-02T10:39:11;12.32;73.19
66722;SHT31;53633;49.932;10.884;2024-03-02T10:41:39;12.35;73.20
66722;SHT31;53633;49.932;10.884;2024-03-02T10:44:07;12.29;73.24
66722;SHT31;53633;49.932;10.884;2024-03-02T10:46:35;12.06;73.50
66722;SHT31;53633;49.932;10.884;2024-03-02T10:49:03;12.06;73.70
66722;SHT31;53633;49.932;10.884;2024-03-02T10:51:33;12.14;73.43
66722;SHT31;53633;49.932;10.884;2024-03-02T10:54:01;12.25;73.44
66722;SHT31;53633;49.932;10.884;2024-03-02T10:56:31;12.32;73.08
66722;SHT31;53633;49.932;10.884;2024-03-02T10:59:02;12.37;72.82
66722;SHT31;53633;49.932;10.884;2024-03-02T11:01:31;12.47;72.70
66722;SHT31;53633;49.932;10.884;2024-03-02T11:03:59;12.37;72.67
66722;SHT31;53633;49.932;10.884;2024-03-02T11:06:28;12.50;72.48
66722;SHT31;53633;49.932;10.884;2024-03-02T11:08:58;12.61;71.94
66722;SHT31;53633;49.932;10.884;2024-03-02T11:11:32;12.63;71.62
66722;SHT31;53633;49.932;10.884;2024-03-02T11:14:01;12.54;71.73
66722;SHT31;53633;49.932;10.884;2024-03-02T11:16:33;12.42;71.59
66722;SHT31;53633;49.932;10.884;2024-03-02T11:19:01;12.46;72.11
66722;SHT31;53633;49.932;10.884;2024-03-02T11:21:28;12.60;71.35
66722;SHT31;53633;49.932;10.884;2024-03-02T11:23:55;12.72;71.11
66722;SHT31;53633;49.932;10.884;2024-03-02T11:26:22;12.73;70.08
66722;SHT31;53633;49.932;10.884;2024-03-02T11:28:50;12.74;70.35
66722;SHT31;53633;49.932;10.884;2024-03-02T11:31:17;12.92;70.72
66722;SHT31;53633;49.932;10.884;2024-03-02T11:33:44;13.04;70.34
66722;SHT31;53633;49.932;10.884;2024-03-02T11:36:10;13.14;69.81
66722;SHT31;53633;49.932;10.884;2024-03-02T11:38:38;13.15;68.76
66722;SHT31;53633;49.932;10.884;2024-03-02T11:41:07;13.23;68.91
66722;SHT31;53633;49.932;10.884;2024-03-02T11:43:37;13.32;69.27
66722;SHT31;53633;49.932;10.884;2024-03-02T11:46:06;13.39;68.26
66722;SHT31;53633;49.932;10.884;2024-03-02T11:48:35;13.28;67.66
66722;SHT31;53633;49.932;10.884;2024-03-02T11:51:02;13.35;67.56
66722;SHT31;53633;49.932;10.884;2024-03-02T11:53:30;13.40;67.70
66722;SHT31;53633;49.932;10.884;2024-03-02T11:56:01;13.32;68.15
66722;SHT31;53633;49.932;10.884;2024-03-02T11:58:28;13.29;67.80
66722;SHT31;53633;49.932;10.884;2024-03-02T12:00:55;13.34;67.93
66722;SHT31;53633;49.932;10.884;2024-03-02T12:03:24;13.39;67.55
66722;SHT31;53633;49.932;10.884;2024-03-02T12:05:53;13.40;67.11
66722;SHT31;53633;49.932;10.884;2024-03-02T12:08:19;13.43;67.21
66722;SHT31;53633;49.932;10.884;2024-03-02T12:10:58;13.43;66.78
66722;SHT31;53633;49.932;10.884;2024-03-02T12:13:25;13.55;67.16
66722;SHT31;53633;49.932;10.884;2024-03-02T12:15:53;13.62;66.82
66722;SHT31;53633;49.932;10.884;2024-03-02T12:18:20;13.65;66.34
66722;SHT31;53633;49.932;10.884;2024-03-02T12:20:49;13.57;66.02
66722;SHT31;53633;49.932;10.884;2024-03-02T12:23:16;13.60;66.53
66722;SHT31;53633;49.932;10.884;2024-03-02T12:25:44;13.73;65.83
66722;SHT31;53633;49.932;10.884;2024-03-02T12:28:11;13.65;65.35
66722;SHT31;53633;49.932;10.884;2024-03-02T12:30:38;13.59;65.50
66722;SHT31;53633;49.932;10.884;2024-03-02T12:33:05;13.65;65.48
66722;SHT31;53633;49.932;10.884;2024-03-02T12:35:32;13.69;65.45
66722;SHT31;53633;49.932;10.884;2024-03-02T12:38:00;13.83;65.23
66722;SHT31;53633;49.932;10.884;2024-03-02T12:40:27;13.87;65.64
66722;SHT31;53633;49.932;10.884;2024-03-02T12:42:54;13.88;65.20
66722;SHT31;53633;49.932;10.884;2024-03-02T12:45:20;14.01;65.25
66722;SHT31;53633;49.932;10.884;2024-03-02T12:47:47;13.95;64.28
66722;SHT31;53633;49.932;10.884;2024-03-02T12:50:14;13.91;64.46
66722;SHT31;53633;49.932;10.884;2024-03-02T12:52:41;13.90;64.76
66722;SHT31;53633;49.932;10.884;2024-03-02T12:55:09;13.87;64.39
66722;SHT31;53633;49.932;10.884;2024-03-02T12:57:39;13.91;64.58
66722;SHT31;53633;49.932;10.884;2024-03-02T13:00:07;13.93;64.61
66722;SHT31;53633;49.932;10.884;2024-03-02T13:02:35;13.90;63.71
66722;SHT31;53633;49.932;10.884;2024-03-02T13:05:02;13.94;64.19
66722;SHT31;53633;49.932;10.884;2024-03-02T13:07:29;13.95;64.34
66722;SHT31;53633;49.932;10.884;2024-03-02T13:09:56;14.03;64.54
66722;SHT31;53633;49.932;10.884;2024-03-02T13:12:24;13.93;64.31
66722;SHT31;53633;49.932;10.884;2024-03-02T13:14:52;14.00;64.70
66722;SHT31;53633;49.932;10.884;2024-03-02T13:17:19;14.00;65.29
66722;SHT31;53633;49.932;10.884;2024-03-02T13:19:52;14.07;65.11
66722;SHT31;53633;49.932;10.884;2024-03-02T13:22:20;14.04;65.10
66722;SHT31;53633;49.932;10.884;2024-03-02T13:24:46;14.10;65.29
66722;SHT31;53633;49.932;10.884;2024-03-02T13:27:13;14.08;64.71
66722;SHT31;53633;49.932;10.884;2024-03-02T13:29:41;14.05;65.33
66722;SHT31;53633;49.932;10.884;2024-03-02T13:32:08;14.00;63.63
66722;SHT31;53633;49.932;10.884;2024-03-02T13:34:35;14.01;63.49
66722;SHT31;53633;49.932;10.884;2024-03-02T13:37:02;14.00;64.03
66722;SHT31;53633;49.932;10.884;2024-03-02T13:39:28;13.97;64.73
66722;SHT31;53633;49.932;10.884;2024-03-02T13:41:55;13.91;65.42
66722;SHT31;53633;49.932;10.884;2024-03-02T13:44:22;13.91;65.00
66722;SHT31;53633;49.932;10.884;2024-03-02T13:46:50;13.86;63.08
66722;SHT31;53633;49.932;10.884;2024-03-02T13:49:17;13.83;64.23
66722;SHT31;53633;49.932;10.884;2024-03-02T13:51:43;13.83;63.81
66722;SHT31;53633;49.932;10.884;2024-03-02T13:54:10;13.87;63.88
66722;SHT31;53633;49.932;10.884;2024-03-02T13:56:37;13.88;63.43
66722;SHT31;53633;49.932;10.884;2024-03-02T13:59:03;13.91;64.26
66722;SHT31;53633;49.932;10.884;2024-03-02T14:01:30;13.90;64.25
66722;SHT31;53633;49.932;10.884;2024-03-02T14:03:58;13.98;64.33
66722;SHT31;53633;49.932;10.884;2024-03-02T14:06:25;13.95;64.55
66722;SHT31;53633;49.932;10.884;2024-03-02T14:08:52;14.00;64.37
66722;SHT31;53633;49.932;10.884;2024-03-02T14:11:19;14.03;64.23
66722;SHT31;53633;49.932;10.884;2024-03-02T14:13:45;14.11;64.28
66722;SHT31;53633;49.932;10.884;2024-03-02T14:16:12;14.08;63.85
66722;SHT31;53633;49.932;10.884;2024-03-02T14:18:39;14.14;63.65
66722;SHT31;53633;49.932;10.884;2024-03-02T14:21:07;14.20;63.98
66722;SHT31;53633;49.932;10.884;2024-03-02T14:23:34;14.25;64.03
66722;SHT31;53633;49.932;10.884;2024-03-02T14:26:00;14.31;63.79
66722;SHT31;53633;49.932;10.884;2024-03-02T14:28:27;14.35;63.84
66722;SHT31;53633;49.932;10.884;2024-03-02T14:31:14;14.31;63.77
66722;SHT31;53633;49.932;10.884;2024-03-02T14:33:40;14.34;63.91
66722;SHT31;53633;49.932;10.884;2024-03-02T14:36:09;14.39;63.67
66722;SHT31;53633;49.932;10.884;2024-03-02T14:38:36;14.35;63.26
66722;SHT31;53633;49.932;10.884;2024-03-02T14:41:02;14.38;63.09
66722;SHT31;53633;49.932;10.884;2024-03-02T14:43:29;14.43;63.55
66722;SHT31;53633;49.932;10.884;2024-03-02T14:45:56;14.46;63.01
66722;SHT31;53633;49.932;10.884;2024-03-02T14:48:24;14.51;62.97
66722;SHT31;53633;49.932;10.884;2024-03-02T14:50:51;14.43;62.92
66722;SHT31;53633;49.932;10.884;2024-03-02T14:53:19;14.45;63.05
66722;SHT31;53633;49.932;10.884;2024-03-02T14:55:46;14.38;63.16
66722;SHT31;53633;49.932;10.884;2024-03-02T14:58:12;14.42;63.67
66722;SHT31;53633;49.932;10.884;2024-03-02T15:00:39;14.42;63.90
66722;SHT31;53633;49.932;10.884;2024-03-02T15:03:06;14.48;63.52
66722;SHT31;53633;49.932;10.884;2024-03-02T15:05:32;14.53;63.86
66722;SHT31;53633;49.932;10.884;2024-03-02T15:07:59;14.43;63.68
66722;SHT31;53633;49.932;10.884;2024-03-02T15:10:27;14.38;64.38
66722;SHT31;53633;49.932;10.884;2024-03-02T15:12:54;14.46;64.64
66722;SHT31;53633;49.932;10.884;2024-03-02T15:15:21;14.38;64.30
66722;SHT31;53633;49.932;10.884;2024-03-02T15:17:47;14.49;64.18
66722;SHT31;53633;49.932;10.884;2024-03-02T15:20:14;14.51;64.57
66722;SHT31;53633;49.932;10.884;2024-03-02T15:22:41;14.52;64.46
66722;SHT31;53633;49.932;10.884;2024-03-02T15:25:08;14.43;64.45
66722;SHT31;53633;49.932;10.884;2024-03-02T15:27:36;14.38;65.38
66722;SHT31;53633;49.932;10.884;2024-03-02T15:30:04;14.11;67.10